This is the latest recevied weather packets stored in our database for station/object DL4JCP-6. If no packets are shown the sender has not sent any weather packets the latest 10 day(s).
| Time | Temp. | Humidity | Pressure | Rain* | Wind** | Luminosity | Snow |
|---|---|---|---|---|---|---|---|
| 1778037493 | 10° C | 95% | 1006.5 hPa | 0 mm | - | - | - |
| 1778036593 | 10° C | 96% | 1006.4 hPa | 0 mm | - | - | - |
| 1778035693 | 9.44° C | 96% | 1006.5 hPa | 0 mm | - | - | - |
| 1778034793 | 9.44° C | 96% | 1006.6 hPa | 0 mm | - | - | - |
| 1778033893 | 9.44° C | 96% | 1006.6 hPa | 0 mm | - | - | - |
| 1778032993 | 9.44° C | 96% | 1006.6 hPa | 0 mm | - | - | - |
| 1778032093 | 8.89° C | 96% | 1006.5 hPa | 0 mm | - | - | - |
| 1778031193 | 9.44° C | 96% | 1006.7 hPa | 0 mm | - | - | - |
| 1778029392 | 9.44° C | 96% | 1007 hPa | 0 mm | - | - | - |
| 1778027592 | 8.89° C | 96% | 1007.1 hPa | 0 mm | - | - | - |
| 1778025792 | 8.89° C | 95% | 1007.4 hPa | 0.25 mm | - | - | - |
| 1778021295 | 10° C | 95% | 1007.4 hPa | 0 mm | - | - | - |
| 1778020392 | 10° C | 95% | 1007.6 hPa | 0 mm | - | - | - |
| 1778019492 | 10° C | 95% | 1007.8 hPa | 0.76 mm | - | - | - |
| 1778015892 | 10.56° C | 95% | 1008.5 hPa | 5.59 mm | - | - | - |
| 1778014991 | 10.56° C | 94% | 1008.5 hPa | 5.59 mm | - | - | - |
| 1778013191 | 10.56° C | 94% | 1009 hPa | 9.14 mm | - | - | - |
| 1778012291 | 10.56° C | 94% | 1008.9 hPa | 8.89 mm | - | - | - |
| 1778010491 | 10.56° C | 92% | 1008.2 hPa | 4.83 mm | - | - | - |
| 1778009591 | 11.67° C | 89% | 1008.3 hPa | 1.27 mm | - | - | - |
| 1778009590 | 11.67° C | 89% | 1008.3 hPa | 1.27 mm | - | - | - |
| 1778009292 | 12.78° C | 93% | 1008.1 hPa | 0.76 mm | - | - | - |
| 1778008991 | 12.78° C | 94% | 1007.6 hPa | 0.51 mm | - | - | - |
| 1778008691 | 12.78° C | 93% | 1007 hPa | 0 mm | - | - | - |
| 1778008691 | 12.78° C | 93% | 1007 hPa | 0 mm | - | - | - |
* Rain latest hour (hover to see other rain measurements)
** Current wind speed in m/s (hover to see current wind gust speed)